createdAt,value
2022-12-29T00:00:25.465Z,98370.22
2022-12-29T00:02:54.577Z,98365.56
2022-12-29T00:05:22.417Z,98364.56
2022-12-29T00:07:50.227Z,98359.97
2022-12-29T00:10:17.920Z,98348.91
2022-12-29T00:13:02.868Z,98362.69
2022-12-29T00:15:39.884Z,98366.66
2022-12-29T00:18:09.450Z,98355.03
2022-12-29T00:20:54.946Z,98354.19
2022-12-29T00:23:51.835Z,98367.50
2022-12-29T00:26:37.292Z,98321.03
2022-12-29T00:29:37.346Z,98342.22
2022-12-29T00:32:23.385Z,98351.31
2022-12-29T00:35:10.700Z,98352.66
2022-12-29T00:37:57.170Z,98344.59
2022-12-29T00:40:42.567Z,98345.69
2022-12-29T00:43:28.131Z,98336.84
2022-12-29T00:45:55.864Z,98341.44
2022-12-29T00:48:38.272Z,98338.19
2022-12-29T00:51:07.575Z,98336.25
2022-12-29T00:53:35.925Z,98326.66
2022-12-29T00:56:03.599Z,98330.06
2022-12-29T00:58:31.700Z,98329.13
2022-12-29T01:01:04.083Z,98333.63
2022-12-29T01:03:32.115Z,98329.38
2022-12-29T01:06:02.112Z,98332.94
2022-12-29T01:08:31.390Z,98329.97
2022-12-29T01:11:01.245Z,98327.50
2022-12-29T01:13:29.188Z,98316.47
2022-12-29T01:15:57.192Z,98324.28
2022-12-29T01:18:25.654Z,98328.94
2022-12-29T01:20:53.447Z,98321.97
2022-12-29T01:23:21.091Z,98319.78
2022-12-29T01:25:50.091Z,98320.03
2022-12-29T01:28:22.206Z,98327.00
2022-12-29T01:30:53.355Z,98319.19
2022-12-29T01:33:21.073Z,98324.34
2022-12-29T01:35:48.874Z,98328.25
2022-12-29T01:38:16.519Z,98335.91
2022-12-29T01:40:47.148Z,98321.81
2022-12-29T01:43:16.280Z,98319.09
2022-12-29T01:45:47.604Z,98319.50
2022-12-29T01:48:15.535Z,98319.94
2022-12-29T01:50:45.803Z,98316.53
2022-12-29T01:53:16.151Z,98323.50
2022-12-29T01:55:49.200Z,98324.53
2022-12-29T01:58:20.462Z,98324.19
2022-12-29T02:00:48.394Z,98320.09
2022-12-29T02:03:16.619Z,98320.72
2022-12-29T02:05:48.545Z,98323.59
2022-12-29T02:08:16.433Z,98310.28
2022-12-29T02:10:44.961Z,98313.06
2022-12-29T02:13:12.722Z,98320.88
2022-12-29T02:15:50.298Z,98308.97
2022-12-29T02:18:27.236Z,98301.16
2022-12-29T02:21:48.971Z,98298.63
2022-12-29T02:24:48.434Z,98302.94
2022-12-29T02:27:33.993Z,98289.31
2022-12-29T02:30:10.613Z,98281.41
2022-12-29T02:32:46.873Z,98283.19
2022-12-29T02:35:22.609Z,98276.56
2022-12-29T02:37:58.456Z,98281.41
2022-12-29T02:40:29.803Z,98275.81
2022-12-29T02:43:04.871Z,98280.13
2022-12-29T02:45:36.306Z,98282.69
2022-12-29T02:48:10.623Z,98284.38
2022-12-29T02:50:41.277Z,98277.44
2022-12-29T02:53:12.240Z,98281.41
2022-12-29T02:55:39.018Z,98274.19
2022-12-29T02:58:19.167Z,98270.03
2022-12-29T03:00:58.509Z,98263.84
2022-12-29T03:03:38.494Z,98254.50
2022-12-29T03:06:17.652Z,98250.25
2022-12-29T03:08:51.257Z,98237.53
2022-12-29T03:11:36.649Z,98225.91
2022-12-29T03:14:26.137Z,98237.94
2022-12-29T03:16:56.648Z,98235.75
2022-12-29T03:19:28.140Z,98230.66
2022-12-29T03:22:16.212Z,98236.25
2022-12-29T03:24:47.707Z,98228.69
2022-12-29T03:27:18.986Z,98225.72
2022-12-29T03:29:53.399Z,98229.03
2022-12-29T03:32:22.476Z,98229.44
2022-12-29T03:34:52.182Z,98210.75
2022-12-29T03:37:23.509Z,98221.38
2022-12-29T03:39:51.221Z,98214.50
2022-12-29T03:42:22.314Z,98215.00
2022-12-29T03:44:50.039Z,98213.97
2022-12-29T03:47:17.736Z,98213.03
2022-12-29T03:49:46.177Z,98220.44
2022-12-29T03:52:15.135Z,98214.75
2022-12-29T03:54:42.899Z,98215.94
2022-12-29T03:57:11.020Z,98205.72
2022-12-29T03:59:38.902Z,98209.34
2022-12-29T04:02:06.683Z,98207.94
2022-12-29T04:04:34.404Z,98215.56
2022-12-29T04:07:02.079Z,98218.81
2022-12-29T04:09:32.253Z,98222.88
2022-12-29T04:11:59.861Z,98221.19
2022-12-29T04:14:27.531Z,98218.63
2022-12-29T04:16:55.416Z,98231.81
2022-12-29T04:19:23.476Z,98239.28
2022-12-29T04:21:51.262Z,98233.31
2022-12-29T04:24:19.026Z,98211.84
2022-12-29T04:26:48.145Z,98224.72
2022-12-29T04:29:15.919Z,98227.72
2022-12-29T04:31:43.655Z,98241.13
2022-12-29T04:34:11.662Z,98228.56
2022-12-29T04:36:40.534Z,98225.91
2022-12-29T04:39:08.867Z,98224.75
2022-12-29T04:41:36.497Z,98218.72
2022-12-29T04:44:05.528Z,98224.41
2022-12-29T04:46:33.343Z,98219.34
2022-12-29T04:49:08.640Z,98212.88
2022-12-29T04:51:36.683Z,98219.09
2022-12-29T04:54:04.677Z,98218.84
2022-12-29T04:56:32.339Z,98205.41
2022-12-29T04:59:00.118Z,98211.53
2022-12-29T05:01:29.376Z,98213.56
2022-12-29T05:03:57.145Z,98206.69
2022-12-29T05:06:24.759Z,98215.44
2022-12-29T05:08:52.441Z,98215.09
2022-12-29T05:11:20.178Z,98214.75
2022-12-29T05:13:47.978Z,98203.78
2022-12-29T05:16:15.659Z,98210.75
2022-12-29T05:18:44.907Z,98205.72
2022-12-29T05:21:12.646Z,98200.47
2022-12-29T05:23:40.288Z,98201.56
2022-12-29T05:26:08.111Z,98205.56
2022-12-29T05:28:35.768Z,98203.50
2022-12-29T05:31:03.421Z,98193.47
2022-12-29T05:33:31.061Z,98195.59
2022-12-29T05:36:06.029Z,98197.31
2022-12-29T05:38:33.737Z,98194.31
2022-12-29T05:41:01.461Z,98179.28
2022-12-29T05:43:29.063Z,98194.22
2022-12-29T05:45:57.210Z,98187.16
2022-12-29T05:48:24.904Z,98195.03
2022-12-29T05:50:52.917Z,98181.53
2022-12-29T05:53:21.969Z,98184.75
2022-12-29T05:55:49.927Z,98193.50
2022-12-29T05:58:18.083Z,98193.31
2022-12-29T06:00:45.955Z,98194.88
2022-12-29T06:03:13.758Z,98204.91
2022-12-29T06:05:41.491Z,98202.00
2022-12-29T06:08:09.096Z,98196.69
2022-12-29T06:10:38.063Z,98194.34
2022-12-29T06:13:06.498Z,98199.03
2022-12-29T06:15:34.987Z,98204.03
2022-12-29T06:18:02.644Z,98209.41
2022-12-29T06:20:30.509Z,98205.25
2022-12-29T06:22:58.132Z,98211.69
2022-12-29T06:25:25.756Z,98200.84
2022-12-29T06:27:54.985Z,98209.13
2022-12-29T06:30:22.826Z,98205.34
2022-12-29T06:32:50.846Z,98199.63
2022-12-29T06:35:18.657Z,98211.94
2022-12-29T06:37:46.271Z,98169.00
2022-12-29T06:40:13.965Z,98198.94
2022-12-29T06:42:41.629Z,98194.09
2022-12-29T06:45:11.925Z,98178.63
2022-12-29T06:47:39.858Z,98202.00
2022-12-29T06:50:08.290Z,98199.22
2022-12-29T06:52:36.026Z,98198.00
2022-12-29T06:55:06.022Z,98194.25
2022-12-29T06:57:33.844Z,98192.72
2022-12-29T07:00:01.621Z,98187.19
2022-12-29T07:02:31.057Z,98191.97
2022-12-29T07:04:59.512Z,98192.38
2022-12-29T07:07:27.961Z,98191.69
2022-12-29T07:09:55.963Z,98181.69
2022-12-29T07:12:23.877Z,98187.63
2022-12-29T07:14:51.471Z,98186.78
2022-12-29T07:17:19.206Z,98195.22
2022-12-29T07:19:48.220Z,98202.50
2022-12-29T07:22:15.939Z,98180.34
2022-12-29T07:24:44.226Z,98206.41
2022-12-29T07:27:11.865Z,98214.41
2022-12-29T07:29:39.779Z,98206.94
2022-12-29T07:32:07.990Z,98219.75
2022-12-29T07:34:35.694Z,98221.13
2022-12-29T07:37:04.847Z,98221.56
2022-12-29T07:39:32.489Z,98221.47
2022-12-29T07:42:04.864Z,98225.22
2022-12-29T07:44:33.104Z,98221.91
2022-12-29T07:47:02.288Z,98223.50
2022-12-29T07:49:30.375Z,98229.91
2022-12-29T07:51:57.995Z,98241.78
2022-12-29T07:54:27.142Z,98235.09
2022-12-29T07:56:54.835Z,98241.50
2022-12-29T07:59:22.676Z,98238.91
2022-12-29T08:01:50.856Z,98245.78
2022-12-29T08:04:18.714Z,98246.72
2022-12-29T08:06:47.316Z,98249.88
2022-12-29T08:09:21.975Z,98259.63
2022-12-29T08:11:51.544Z,98254.63
2022-12-29T08:14:19.580Z,98256.25
2022-12-29T08:16:47.541Z,98262.81
2022-12-29T08:19:15.460Z,98265.25
2022-12-29T08:21:43.286Z,98264.66
2022-12-29T08:24:11.594Z,98262.63
2022-12-29T08:26:39.453Z,98262.38
2022-12-29T08:29:08.571Z,98257.19
2022-12-29T08:31:36.403Z,98257.19
2022-12-29T08:34:04.997Z,98272.56
2022-12-29T08:36:33.053Z,98265.75
2022-12-29T08:39:04.133Z,98271.44
2022-12-29T08:41:32.471Z,98270.25
2022-12-29T08:44:00.232Z,98268.81
2022-12-29T08:46:29.578Z,98278.25
2022-12-29T08:48:57.507Z,98280.97
2022-12-29T08:51:25.562Z,98285.81
2022-12-29T08:53:53.494Z,98294.66
2022-12-29T08:56:21.251Z,98282.50
2022-12-29T08:58:49.015Z,98282.06
2022-12-29T09:01:16.718Z,98283.78
2022-12-29T09:06:38.202Z,98299.19
2022-12-29T09:09:09.471Z,98294.31
2022-12-29T09:11:37.157Z,98296.03
2022-12-29T09:14:05.045Z,98308.28
2022-12-29T09:16:32.794Z,98314.47
2022-12-29T09:19:02.214Z,98324.41
2022-12-29T09:21:30.334Z,98317.19
2022-12-29T09:23:57.921Z,98330.94
2022-12-29T09:26:25.948Z,98327.69
2022-12-29T09:28:54.588Z,98333.97
2022-12-29T09:31:23.181Z,98316.75
2022-12-29T09:33:50.944Z,98337.78
2022-12-29T09:36:20.285Z,98344.66
2022-12-29T09:38:48.179Z,98357.06
2022-12-29T09:41:20.859Z,98354.03
2022-12-29T09:43:58.646Z,98359.44
2022-12-29T09:46:28.217Z,98353.94
2022-12-29T09:49:03.062Z,98341.03
2022-12-29T09:51:33.671Z,98345.09
2022-12-29T09:54:05.178Z,98342.97
2022-12-29T09:56:32.939Z,98354.69
2022-12-29T09:59:04.566Z,98331.16
2022-12-29T10:01:35.031Z,98345.00
2022-12-29T10:04:06.061Z,98341.44
2022-12-29T10:06:56.449Z,98343.31
2022-12-29T10:09:35.893Z,98356.81
2022-12-29T10:12:11.521Z,98364.88
2022-12-29T10:14:55.106Z,98363.38
2022-12-29T10:17:29.279Z,98360.06
2022-12-29T10:20:12.893Z,98354.78
2022-12-29T10:22:50.043Z,98357.09
2022-12-29T10:25:21.219Z,98356.44
2022-12-29T10:27:50.524Z,98361.34
2022-12-29T10:30:19.176Z,98377.56
2022-12-29T10:32:51.406Z,98358.72
2022-12-29T10:35:22.486Z,98369.09
2022-12-29T10:37:56.086Z,98366.13
2022-12-29T10:40:28.069Z,98370.81
2022-12-29T10:42:57.645Z,98372.88
2022-12-29T10:45:29.728Z,98368.28
2022-12-29T10:48:01.703Z,98369.53
2022-12-29T10:50:30.503Z,98378.78
2022-12-29T10:53:02.191Z,98380.00
2022-12-29T10:55:32.127Z,98372.66
2022-12-29T10:58:05.656Z,98377.81
2022-12-29T11:00:34.679Z,98373.59
2022-12-29T11:03:25.335Z,98381.06
2022-12-29T11:05:58.853Z,98396.13
2022-12-29T11:08:32.710Z,98396.53
2022-12-29T11:11:02.357Z,98393.88
2022-12-29T11:13:38.350Z,98393.22
2022-12-29T11:16:07.785Z,98396.78
2022-12-29T11:18:38.436Z,98391.75
2022-12-29T11:21:08.096Z,98384.94
2022-12-29T11:23:38.803Z,98374.56
2022-12-29T11:26:19.079Z,98389.81
2022-12-29T11:28:48.288Z,98388.13
2022-12-29T11:31:20.054Z,98395.00
2022-12-29T11:33:47.948Z,98387.34
2022-12-29T11:36:18.632Z,98396.38
2022-12-29T11:38:51.953Z,98396.78
2022-12-29T11:41:25.063Z,98402.03
2022-12-29T11:43:53.752Z,98395.81
2022-12-29T11:46:24.554Z,98401.75
2022-12-29T11:48:53.077Z,98394.88
2022-12-29T11:51:25.522Z,98395.91
2022-12-29T11:53:58.281Z,98371.53
2022-12-29T11:56:40.409Z,98392.63
2022-12-29T11:59:40.513Z,98396.84
2022-12-29T12:02:43.041Z,98385.97
2022-12-29T12:05:22.037Z,98381.38
2022-12-29T12:07:53.088Z,98393.78
2022-12-29T12:10:27.972Z,98383.38
2022-12-29T12:13:00.868Z,98389.22
2022-12-29T12:15:32.278Z,98384.53
2022-12-29T12:18:05.723Z,98373.50
2022-12-29T12:20:43.638Z,98380.41
2022-12-29T12:23:20.163Z,98380.59
2022-12-29T12:25:55.470Z,98379.31
2022-12-29T12:28:36.416Z,98373.88
2022-12-29T12:31:08.392Z,98368.94
2022-12-29T12:33:39.304Z,98392.03
2022-12-29T12:36:24.693Z,98374.75
2022-12-29T12:38:56.691Z,98378.19
2022-12-29T12:41:33.418Z,98374.78
2022-12-29T12:44:04.244Z,98365.59
2022-12-29T12:47:16.439Z,98367.00
2022-12-29T12:50:08.209Z,98368.28
2022-12-29T12:52:46.913Z,98363.03
2022-12-29T12:55:31.154Z,98367.06
2022-12-29T12:58:06.463Z,98371.63
2022-12-29T13:00:39.211Z,98370.59
2022-12-29T13:03:12.250Z,98348.81
2022-12-29T13:06:04.440Z,98361.75
2022-12-29T13:08:51.504Z,98357.97
2022-12-29T13:11:23.490Z,98354.31
2022-12-29T13:14:05.705Z,98363.91
2022-12-29T13:16:37.668Z,98363.81
2022-12-29T13:19:08.500Z,98353.94
2022-12-29T13:21:52.186Z,98359.38
2022-12-29T13:24:27.985Z,98370.03
2022-12-29T13:26:57.359Z,98351.38
2022-12-29T13:29:34.550Z,98375.50
2022-12-29T13:32:15.762Z,98365.34
2022-12-29T13:34:48.303Z,98369.38
2022-12-29T13:37:17.655Z,98359.69
2022-12-29T13:39:50.321Z,98359.69
2022-12-29T13:42:19.097Z,98364.22
2022-12-29T13:44:53.704Z,98368.44
2022-12-29T13:47:26.152Z,98369.56
2022-12-29T13:49:54.499Z,98367.94
2022-12-29T13:52:28.980Z,98360.31
2022-12-29T13:55:03.057Z,98365.19
2022-12-29T13:57:39.298Z,98376.31
2022-12-29T14:00:15.459Z,98355.78
2022-12-29T14:02:53.382Z,98384.63
2022-12-29T14:05:32.169Z,98378.59
2022-12-29T14:08:01.345Z,98384.72
2022-12-29T14:10:31.768Z,98383.69
2022-12-29T14:13:05.360Z,98399.16
2022-12-29T14:15:35.571Z,98405.47
2022-12-29T14:18:13.000Z,98409.56
2022-12-29T14:20:41.824Z,98411.47
2022-12-29T14:23:28.929Z,98425.69
2022-12-29T14:26:13.602Z,98424.69
2022-12-29T14:28:42.472Z,98430.97
2022-12-29T14:31:42.183Z,98420.78
2022-12-29T14:34:32.891Z,98422.13
2022-12-29T14:37:01.523Z,98420.97
2022-12-29T14:39:39.221Z,98410.59
2022-12-29T14:42:08.812Z,98408.88
2022-12-29T14:44:36.890Z,98406.06
2022-12-29T14:47:08.522Z,98401.59
2022-12-29T14:49:44.062Z,98405.25
2022-12-29T14:52:17.118Z,98402.88
2022-12-29T14:54:51.448Z,98409.94
2022-12-29T14:57:28.133Z,98410.31
2022-12-29T14:59:58.225Z,98418.13
2022-12-29T15:02:28.818Z,98429.09
2022-12-29T15:04:56.808Z,98432.84
2022-12-29T15:07:24.557Z,98426.63
2022-12-29T15:09:56.792Z,98431.56
2022-12-29T15:12:33.076Z,98437.00
2022-12-29T15:15:02.377Z,98429.69
2022-12-29T15:17:32.993Z,98432.31
2022-12-29T15:20:01.847Z,98423.66
2022-12-29T15:22:29.704Z,98447.88
2022-12-29T15:24:57.904Z,98424.75
2022-12-29T15:27:27.839Z,98427.47
2022-12-29T15:30:00.342Z,98439.03
2022-12-29T15:32:29.663Z,98444.28
2022-12-29T15:35:01.148Z,98438.78
2022-12-29T15:37:30.615Z,98438.09
2022-12-29T15:39:58.241Z,98434.69
2022-12-29T15:42:34.478Z,98441.91
2022-12-29T15:45:10.905Z,98450.63
2022-12-29T15:47:39.449Z,98451.25
2022-12-29T15:50:15.215Z,98460.09
2022-12-29T15:52:42.978Z,98447.03
2022-12-29T15:55:21.657Z,98458.56
2022-12-29T15:57:49.281Z,98457.19
2022-12-29T16:00:25.558Z,98453.22
2022-12-29T16:02:53.499Z,98462.91
2022-12-29T16:05:23.073Z,98460.34
2022-12-29T16:07:54.796Z,98477.59
2022-12-29T16:10:34.769Z,98479.06
2022-12-29T16:13:07.299Z,98472.78
2022-12-29T16:15:34.983Z,98489.25
2022-12-29T16:18:02.950Z,98485.91
2022-12-29T16:20:40.575Z,98484.59
2022-12-29T16:23:19.113Z,98490.53
2022-12-29T16:25:47.182Z,98496.31
2022-12-29T16:28:19.954Z,98499.78
2022-12-29T16:30:47.788Z,98501.66
2022-12-29T16:33:34.438Z,98511.72
2022-12-29T16:36:03.534Z,98514.09
2022-12-29T16:38:34.143Z,98513.16
2022-12-29T16:41:03.349Z,98512.44
2022-12-29T16:43:32.618Z,98512.03
2022-12-29T16:46:27.194Z,98525.72
2022-12-29T16:48:56.537Z,98525.88
2022-12-29T16:51:32.593Z,98542.00
2022-12-29T16:54:01.146Z,98524.91
2022-12-29T16:56:31.018Z,98537.88
2022-12-29T16:59:03.994Z,98535.78
2022-12-29T17:01:32.329Z,98547.97
2022-12-29T17:04:02.853Z,98549.94
2022-12-29T17:06:32.425Z,98550.09
2022-12-29T17:09:00.101Z,98551.09
2022-12-29T17:11:51.218Z,98538.19
2022-12-29T17:14:33.800Z,98534.75
2022-12-29T17:17:02.074Z,98538.81
2022-12-29T17:19:32.494Z,98541.97
2022-12-29T17:22:01.704Z,98539.53
2022-12-29T17:24:29.772Z,98539.19
2022-12-29T17:26:58.505Z,98543.00
2022-12-29T17:29:32.430Z,98537.69
2022-12-29T17:32:00.368Z,98541.66
2022-12-29T17:34:28.017Z,98535.13
2022-12-29T17:36:55.682Z,98527.41
2022-12-29T17:39:24.598Z,98530.28
2022-12-29T17:41:54.351Z,98522.84
2022-12-29T17:44:31.288Z,98517.88
2022-12-29T17:47:00.601Z,98529.66
2022-12-29T17:49:29.848Z,98536.06
2022-12-29T17:51:59.912Z,98525.03
2022-12-29T17:54:29.952Z,98536.59
2022-12-29T17:56:59.366Z,98532.84
2022-12-29T17:59:27.691Z,98537.47
2022-12-29T18:01:58.188Z,98547.81
2022-12-29T18:04:27.689Z,98542.44
2022-12-29T18:06:56.109Z,98547.31
2022-12-29T18:09:24.308Z,98515.50
2022-12-29T18:11:53.937Z,98538.53
2022-12-29T18:14:22.161Z,98545.34
2022-12-29T18:16:50.755Z,98543.06
2022-12-29T18:19:18.687Z,98553.28
2022-12-29T18:21:46.890Z,98545.28
2022-12-29T18:24:18.433Z,98550.00
2022-12-29T18:26:46.257Z,98562.09
2022-12-29T18:29:15.142Z,98563.84
2022-12-29T18:31:45.462Z,98552.91
2022-12-29T18:34:15.490Z,98551.06
2022-12-29T18:36:43.064Z,98543.84
2022-12-29T18:39:11.992Z,98542.41
2022-12-29T18:41:39.537Z,98552.06
2022-12-29T18:44:12.106Z,98538.88
2022-12-29T18:46:41.398Z,98551.03
2022-12-29T18:49:09.011Z,98511.00
2022-12-29T18:51:36.630Z,98556.31
2022-12-29T18:54:04.431Z,98553.25
2022-12-29T18:56:32.176Z,98548.91
2022-12-29T18:58:59.787Z,98566.31
2022-12-29T19:01:29.172Z,98573.53
2022-12-29T19:03:58.293Z,98573.53
2022-12-29T19:06:25.967Z,98550.09
2022-12-29T19:08:53.668Z,98572.06
2022-12-29T19:11:21.294Z,98578.66
2022-12-29T19:13:48.926Z,98584.41
2022-12-29T19:16:20.164Z,98579.53
2022-12-29T19:18:58.599Z,98583.94
2022-12-29T19:21:37.447Z,98591.03
2022-12-29T19:24:05.390Z,98593.03
2022-12-29T19:26:36.322Z,98584.44
2022-12-29T19:29:04.840Z,98579.94
2022-12-29T19:31:32.662Z,98597.19
2022-12-29T19:34:01.816Z,98594.88
2022-12-29T19:36:29.499Z,98589.63
2022-12-29T19:38:58.613Z,98590.91
2022-12-29T19:41:26.410Z,98585.78
2022-12-29T19:43:54.066Z,98583.69
2022-12-29T19:46:23.199Z,98584.41
2022-12-29T19:48:51.489Z,98576.41
2022-12-29T19:51:19.558Z,98575.56
2022-12-29T19:53:47.750Z,98582.19
2022-12-29T19:56:17.328Z,98581.47
2022-12-29T19:58:47.499Z,98592.94
2022-12-29T20:01:20.791Z,98585.19
2022-12-29T20:03:48.588Z,98582.44
2022-12-29T20:06:17.000Z,98586.59
2022-12-29T20:08:44.726Z,98588.22
2022-12-29T20:11:13.580Z,98590.66
2022-12-29T20:13:43.635Z,98573.47
2022-12-29T20:16:14.213Z,98590.53
2022-12-29T20:18:42.325Z,98584.69
2022-12-29T20:21:12.789Z,98594.97
2022-12-29T20:23:41.151Z,98603.72
2022-12-29T20:26:09.886Z,98604.56
2022-12-29T20:28:37.618Z,98616.56
2022-12-29T20:31:09.106Z,98620.84
2022-12-29T20:33:37.051Z,98612.63
2022-12-29T20:36:07.139Z,98630.16
2022-12-29T20:38:35.199Z,98634.75
2022-12-29T20:41:02.803Z,98613.50
2022-12-29T20:43:30.442Z,98631.81
2022-12-29T20:45:58.127Z,98640.09
2022-12-29T20:48:27.270Z,98648.22
2022-12-29T20:50:59.267Z,98646.25
2022-12-29T20:53:27.453Z,98645.78
2022-12-29T20:55:55.401Z,98663.97
2022-12-29T20:58:24.364Z,98654.72
2022-12-29T21:00:52.640Z,98657.66
2022-12-29T21:03:20.424Z,98651.34
2022-12-29T21:05:53.604Z,98664.16
2022-12-29T21:08:21.896Z,98665.25
2022-12-29T21:10:50.768Z,98662.03
2022-12-29T21:13:18.459Z,98648.63
2022-12-29T21:15:46.657Z,98663.25
2022-12-29T21:18:14.381Z,98665.94
2022-12-29T21:20:42.337Z,98648.63
2022-12-29T21:23:11.677Z,98652.50
2022-12-29T21:25:44.657Z,98671.25
2022-12-29T21:28:13.019Z,98658.00
2022-12-29T21:30:40.969Z,98667.84
2022-12-29T21:33:08.937Z,98670.28
2022-12-29T21:35:37.018Z,98674.38
2022-12-29T21:38:05.179Z,98671.75
2022-12-29T21:40:35.140Z,98677.84
2022-12-29T21:43:02.829Z,98682.47
2022-12-29T21:45:32.406Z,98685.88
2022-12-29T21:48:19.722Z,98686.81
2022-12-29T21:51:06.673Z,98693.56
2022-12-29T21:53:38.854Z,98691.78
2022-12-29T21:56:09.451Z,98707.13
2022-12-29T21:59:03.775Z,98709.31
2022-12-29T22:01:49.997Z,98718.03
2022-12-29T22:04:36.910Z,98722.19
2022-12-29T22:07:23.227Z,98721.72
2022-12-29T22:10:08.609Z,98724.69
2022-12-29T22:12:55.119Z,98724.06
2022-12-29T22:15:22.745Z,98730.09
2022-12-29T22:17:51.954Z,98740.56
2022-12-29T22:20:20.298Z,98744.91
2022-12-29T22:22:48.170Z,98731.94
2022-12-29T22:25:16.024Z,98755.13
2022-12-29T22:27:45.045Z,98749.94
2022-12-29T22:30:13.351Z,98744.06
2022-12-29T22:32:40.980Z,98756.41
2022-12-29T22:35:10.128Z,98754.72
2022-12-29T22:37:39.108Z,98760.22
2022-12-29T22:40:09.382Z,98760.31
2022-12-29T22:42:37.042Z,98762.78
2022-12-29T22:45:06.959Z,98756.13
2022-12-29T22:47:34.959Z,98771.91
2022-12-29T22:50:02.790Z,98769.19
2022-12-29T22:52:30.479Z,98772.72
2022-12-29T22:55:04.625Z,98777.09
2022-12-29T22:57:34.149Z,98786.81
2022-12-29T23:00:01.812Z,98797.44
2022-12-29T23:02:31.372Z,98790.50
2022-12-29T23:05:03.505Z,98791.25
2022-12-29T23:07:32.432Z,98795.47
2022-12-29T23:10:00.067Z,98796.47
2022-12-29T23:12:31.027Z,98807.72
2022-12-29T23:15:00.008Z,98800.22
2022-12-29T23:17:28.177Z,98807.88
2022-12-29T23:19:57.416Z,98815.00
2022-12-29T23:22:26.874Z,98821.75
2022-12-29T23:24:54.907Z,98813.84
2022-12-29T23:27:23.441Z,98805.50
2022-12-29T23:29:52.491Z,98816.56
2022-12-29T23:32:22.548Z,98809.72
2022-12-29T23:34:51.268Z,98815.00
2022-12-29T23:37:20.303Z,98809.22
2022-12-29T23:39:47.919Z,98809.94
2022-12-29T23:42:16.174Z,98803.88
2022-12-29T23:44:43.940Z,98796.88
2022-12-29T23:47:11.733Z,98798.75
2022-12-29T23:49:39.277Z,98789.53
2022-12-29T23:52:07.093Z,98797.09
2022-12-29T23:54:36.038Z,98799.75
2022-12-29T23:57:03.677Z,98791.91
2022-12-29T23:59:31.346Z,98793.75
